Latest  Newer  Older  Last 2 hours slideshow  Last 24 hours slideshow  Refresh every 5 minutes 
Current image  Latest image  Rain/snow radar  Cloud coverage sat images 

All time is UTC (add 2 hours to UTC in wintertime, 3 hours to UTC in DST for Latvia local time)

2021/08/01 04:50 EVRA 010450Z 19006KT 9999 SCT049CB 16/15 Q1002 NOSIG
2021/08/01 04:50 EVLA 010450Z AUTO 24020KT 9999 SCT019/// BKN026/// 18/15 Q1001
2021/08/01 04:50 EVVA 010450Z AUTO 18011KT 9999 FEW015 SCT021 BKN031 16/16 Q0999
2021/08/01 04:50 EYKA 010450Z 23007KT CAVOK 18/13 Q1006
2021/08/01 04:50 EYPA 010450Z 25008G20KT 200V300 9999 BKN018CB 19/16 Q1003
2021/08/01 04:50 EYSA 010450Z 21010KT CAVOK 17/14 Q1004 BLU NOSIG
2021/08/01 04:50 EYVI 010450Z 24009KT CAVOK 18/14 Q1007 NOSIG
2021/07/31 07:50 EEKA 310750Z 22007KT 150V280 9999 SCT021 20/16 Q0998
2021/08/01 04:50 EEKE 010450Z AUTO 20013KT 9999NDV FEW033 16/14 Q0999

2021/08/01 04:50 EETN 010450Z 18007KT 9999 BKN007 17/16 Q0999 NOSIG
2021/08/01 04:50 EETU 010450Z AUTO 21008KT 9999 FEW110/// 17/15 Q1002
   RIGA AIRPORT     EVRA               56 55N  023 58E   10   X     T          6 LV
   LIEPAJA INTL     EVLA        26406  56 31N  021 06E    4   X                8 LV
   VENTPILS         EVVA               57 21N  021 33E    6   X                8 LV
   KAUNAS           EYKA               54 54N  023 55E   77   X     T          6 LT
   PALANGA INTL     EYPA               55 55N  021 03E   10   X                6 LT
   SIAULIAI INTL    EYSA               55 54N  023 24E  135   X     T          6 LT
   VILNIUS INTL     EYVI        26730  54 38N  025 17E  197   X     T          6 LT
   KARDLA           EEKA        26116  58 59N  022 50E    4   X                8 EE
   KURESSAARE       EEKE               58 14N  022 31E    4   X                8 EE
   PARNU            EEPU               58 25N  024 28E   14   X                8 EE
   TALLINN          EETN        26038  59 24N  024 49E   40   X     T          8 EE
   TARTU            EETU               58 19N  026 41E   67   X                8 EE